createdAt,value
2016-10-19T00:00:10.666Z,1015.11
2016-10-19T00:00:51.351Z,1015.09
2016-10-19T00:01:32.023Z,1015.07
2016-10-19T00:02:12.738Z,1015.06
2016-10-19T00:02:53.389Z,1015.07
2016-10-19T00:03:34.058Z,1015.04
2016-10-19T00:04:14.772Z,1015
2016-10-19T00:04:55.446Z,1015.05
2016-10-19T00:05:36.134Z,1015.06
2016-10-19T00:06:16.811Z,1015
2016-10-19T00:06:57.509Z,1015.03
2016-10-19T00:07:38.227Z,1015.03
2016-10-19T00:08:18.938Z,1015.01
2016-10-19T00:08:59.583Z,1015
2016-10-19T00:09:40.214Z,1014.96
2016-10-19T00:10:20.870Z,1014.98
2016-10-19T00:11:01.557Z,1014.99
2016-10-19T00:11:42.223Z,1014.98
2016-10-19T00:12:22.874Z,1014.96
2016-10-19T00:13:03.557Z,1014.96
2016-10-19T00:13:44.234Z,1014.96
2016-10-19T00:14:24.909Z,1014.96
2016-10-19T00:15:05.632Z,1014.96
2016-10-19T00:15:46.257Z,1014.92
2016-10-19T00:16:26.918Z,1014.92
2016-10-19T00:17:07.648Z,1014.93
2016-10-19T00:17:48.301Z,1014.92
2016-10-19T00:18:28.957Z,1014.91
2016-10-19T00:19:09.624Z,1014.9
2016-10-19T00:19:50.296Z,1014.89
2016-10-19T00:20:30.987Z,1014.93
2016-10-19T00:21:11.704Z,1014.89
2016-10-19T00:21:52.388Z,1014.89
2016-10-19T00:22:33.082Z,1014.88
2016-10-19T00:23:13.771Z,1014.89
2016-10-19T00:23:54.481Z,1014.88
2016-10-19T00:24:35.175Z,1014.88
2016-10-19T00:25:15.849Z,1014.86
2016-10-19T00:25:56.551Z,1014.89
2016-10-19T00:26:37.209Z,1014.88
2016-10-19T00:27:17.916Z,1014.89
2016-10-19T00:27:59.379Z,1014.86
2016-10-19T00:28:40.087Z,1014.85
2016-10-19T00:29:20.821Z,1014.87
2016-10-19T00:30:01.526Z,1014.85
2016-10-19T00:30:42.211Z,1014.84
2016-10-19T00:31:22.923Z,1014.86
2016-10-19T00:32:03.647Z,1014.83
2016-10-19T00:32:44.318Z,1014.82
2016-10-19T00:33:25.002Z,1014.83
2016-10-19T00:34:06.254Z,1014.84
2016-10-19T00:34:46.963Z,1014.82
2016-10-19T00:35:27.636Z,1014.78
2016-10-19T00:36:08.365Z,1014.76
2016-10-19T00:36:49.044Z,1014.79
2016-10-19T00:37:29.726Z,1014.78
2016-10-19T00:38:10.371Z,1014.78
2016-10-19T00:38:51.048Z,1014.78
2016-10-19T00:39:31.717Z,1014.77
2016-10-19T00:40:12.366Z,1014.77
2016-10-19T00:40:53.020Z,1014.78
2016-10-19T00:41:33.700Z,1014.77
2016-10-19T00:42:14.310Z,1014.77
2016-10-19T00:42:55.012Z,1014.74
2016-10-19T00:43:35.715Z,1014.79
2016-10-19T00:44:16.366Z,1014.76
2016-10-19T00:44:57.039Z,1014.79
2016-10-19T00:45:37.751Z,1014.77
2016-10-19T00:46:18.442Z,1014.77
2016-10-19T00:46:59.179Z,1014.75
2016-10-19T00:47:39.894Z,1014.74
2016-10-19T00:48:20.546Z,1014.74
2016-10-19T00:49:01.193Z,1014.76
2016-10-19T00:49:41.877Z,1014.75
2016-10-19T00:50:22.518Z,1014.75
2016-10-19T00:51:03.203Z,1014.76
2016-10-19T00:51:43.875Z,1014.73
2016-10-19T00:52:24.567Z,1014.74
2016-10-19T00:53:05.186Z,1014.75
2016-10-19T00:53:45.888Z,1014.77
2016-10-19T00:54:26.582Z,1014.75
2016-10-19T00:55:07.305Z,1014.73
2016-10-19T00:55:48.655Z,1014.72
2016-10-19T00:56:29.390Z,1014.73
2016-10-19T00:57:10.062Z,1014.75
2016-10-19T00:57:50.735Z,1014.72
2016-10-19T00:58:31.474Z,1014.74
2016-10-19T00:59:12.134Z,1014.72
2016-10-19T00:59:52.847Z,1014.75
2016-10-19T01:00:33.539Z,1014.73
2016-10-19T01:01:14.230Z,1014.73
2016-10-19T01:01:54.899Z,1014.72
2016-10-19T01:02:35.646Z,1014.71
2016-10-19T01:03:16.308Z,1014.69
2016-10-19T01:03:56.964Z,1014.71
2016-10-19T01:04:37.597Z,1014.73
2016-10-19T01:05:18.332Z,1014.72
2016-10-19T01:05:59.029Z,1014.67
2016-10-19T01:06:39.746Z,1014.72
2016-10-19T01:07:20.389Z,1014.69
2016-10-19T01:08:01.062Z,1014.66
2016-10-19T01:08:41.796Z,1014.67
2016-10-19T01:09:22.509Z,1014.68
2016-10-19T01:10:03.210Z,1014.65
2016-10-19T01:10:43.887Z,1014.65
2016-10-19T01:11:24.542Z,1014.64
2016-10-19T01:12:05.263Z,1014.62
2016-10-19T01:12:45.926Z,1014.59
2016-10-19T01:13:26.589Z,1014.6
2016-10-19T01:14:07.288Z,1014.57
2016-10-19T01:14:47.949Z,1014.6
2016-10-19T01:15:28.636Z,1014.6
2016-10-19T01:16:09.365Z,1014.56
2016-10-19T01:16:50.048Z,1014.57
2016-10-19T01:17:30.695Z,1014.56
2016-10-19T01:18:11.371Z,1014.57
2016-10-19T01:18:52.061Z,1014.55
2016-10-19T01:19:32.777Z,1014.57
2016-10-19T01:20:13.441Z,1014.52
2016-10-19T01:20:54.166Z,1014.56
2016-10-19T01:21:34.821Z,1014.54
2016-10-19T01:22:15.482Z,1014.52
2016-10-19T01:22:56.199Z,1014.52
2016-10-19T01:23:36.869Z,1014.53
2016-10-19T01:24:17.542Z,1014.5
2016-10-19T01:24:58.208Z,1014.5
2016-10-19T01:25:38.929Z,1014.52
2016-10-19T01:26:19.624Z,1014.5
2016-10-19T01:27:00.273Z,1014.51
2016-10-19T01:27:40.995Z,1014.49
2016-10-19T01:28:21.629Z,1014.48
2016-10-19T01:29:02.336Z,1014.46
2016-10-19T01:29:42.992Z,1014.44
2016-10-19T01:30:23.615Z,1014.43
2016-10-19T01:31:04.316Z,1014.45
2016-10-19T01:31:45.031Z,1014.44
2016-10-19T01:32:25.716Z,1014.43
2016-10-19T01:33:06.439Z,1014.41
2016-10-19T01:33:47.124Z,1014.39
2016-10-19T01:34:27.847Z,1014.35
2016-10-19T01:35:08.478Z,1014.38
2016-10-19T01:35:49.193Z,1014.35
2016-10-19T01:36:29.851Z,1014.34
2016-10-19T01:37:10.574Z,1014.36
2016-10-19T01:37:51.275Z,1014.32
2016-10-19T01:38:31.980Z,1014.33
2016-10-19T01:39:12.710Z,1014.31
2016-10-19T01:39:53.373Z,1014.34
2016-10-19T01:40:34.037Z,1014.29
2016-10-19T01:41:14.760Z,1014.28
2016-10-19T01:41:55.403Z,1014.27
2016-10-19T01:42:36.130Z,1014.25
2016-10-19T01:43:16.836Z,1014.25
2016-10-19T01:43:57.538Z,1014.21
2016-10-19T01:44:38.256Z,1014.17
2016-10-19T01:45:18.955Z,1014.19
2016-10-19T01:45:59.629Z,1014.21
2016-10-19T01:46:40.331Z,1014.2
2016-10-19T01:47:20.989Z,1014.19
2016-10-19T01:48:01.661Z,1014.17
2016-10-19T01:48:42.404Z,1014.2
2016-10-19T01:49:23.110Z,1014.16
2016-10-19T01:50:03.768Z,1014.15
2016-10-19T01:50:44.473Z,1014.12
2016-10-19T01:51:25.129Z,1014.16
2016-10-19T01:52:05.785Z,1014.15
2016-10-19T01:52:46.453Z,1014.11
2016-10-19T01:53:27.127Z,1014.08
2016-10-19T01:54:07.846Z,1014.1
2016-10-19T01:54:48.520Z,1014.11
2016-10-19T01:55:29.203Z,1014.11
2016-10-19T01:56:09.918Z,1014.1
2016-10-19T01:56:50.588Z,1014.05
2016-10-19T01:57:31.293Z,1014.08
2016-10-19T01:58:11.993Z,1014.06
2016-10-19T01:58:52.640Z,1014.04
2016-10-19T01:59:33.317Z,1014.06
2016-10-19T02:00:14.020Z,1014.05
2016-10-19T02:00:54.674Z,1014.05
2016-10-19T02:01:35.398Z,1014.03
2016-10-19T02:02:16.094Z,1014.02
2016-10-19T02:02:56.796Z,1013.99
2016-10-19T02:03:37.513Z,1014
2016-10-19T02:04:18.183Z,1013.99
2016-10-19T02:04:58.861Z,1013.99
2016-10-19T02:05:39.573Z,1013.98
2016-10-19T02:06:20.249Z,1013.96
2016-10-19T02:07:00.912Z,1013.95
2016-10-19T02:07:41.601Z,1013.91
2016-10-19T02:08:22.256Z,1013.91
2016-10-19T02:09:02.979Z,1013.93
2016-10-19T02:09:43.679Z,1013.91
2016-10-19T02:10:24.336Z,1013.9
2016-10-19T02:11:04.984Z,1013.89
2016-10-19T02:11:45.662Z,1013.89
2016-10-19T02:12:26.380Z,1013.9
2016-10-19T02:13:07.036Z,1013.91
2016-10-19T02:13:47.720Z,1013.88
2016-10-19T02:14:28.373Z,1013.91
2016-10-19T02:15:09.045Z,1013.87
2016-10-19T02:15:49.760Z,1013.88
2016-10-19T02:16:30.404Z,1013.84
2016-10-19T02:17:11.092Z,1013.82
2016-10-19T02:17:51.762Z,1013.83
2016-10-19T02:18:32.413Z,1013.85
2016-10-19T02:19:13.106Z,1013.81
2016-10-19T02:19:53.776Z,1013.81
2016-10-19T02:20:34.450Z,1013.82
2016-10-19T02:21:15.087Z,1013.82
2016-10-19T02:21:55.770Z,1013.79
2016-10-19T02:22:36.462Z,1013.78
2016-10-19T02:23:17.144Z,1013.73
2016-10-19T02:23:57.872Z,1013.79
2016-10-19T02:24:38.551Z,1013.75
2016-10-19T02:25:19.218Z,1013.76
2016-10-19T02:25:59.950Z,1013.71
2016-10-19T02:26:40.600Z,1013.7
2016-10-19T02:27:21.283Z,1013.7
2016-10-19T02:28:02.008Z,1013.72
2016-10-19T02:28:42.728Z,1013.7
2016-10-19T02:29:23.434Z,1013.69
2016-10-19T02:30:04.102Z,1013.66
2016-10-19T02:30:44.753Z,1013.67
2016-10-19T02:31:25.478Z,1013.67
2016-10-19T02:32:06.155Z,1013.66
2016-10-19T02:32:46.814Z,1013.65
2016-10-19T02:33:27.514Z,1013.66
2016-10-19T02:34:08.203Z,1013.66
2016-10-19T02:34:48.927Z,1013.65
2016-10-19T02:35:29.620Z,1013.62
2016-10-19T02:36:10.304Z,1013.64
2016-10-19T02:36:50.973Z,1013.61
2016-10-19T02:37:31.692Z,1013.63
2016-10-19T02:38:12.382Z,1013.63
2016-10-19T02:38:53.113Z,1013.61
2016-10-19T02:39:33.776Z,1013.62
2016-10-19T02:40:14.470Z,1013.61
2016-10-19T02:40:55.173Z,1013.58
2016-10-19T02:41:35.875Z,1013.61
2016-10-19T02:42:16.491Z,1013.62
2016-10-19T02:42:57.151Z,1013.59
2016-10-19T02:43:37.827Z,1013.61
2016-10-19T02:44:18.513Z,1013.57
2016-10-19T02:44:59.204Z,1013.55
2016-10-19T02:45:39.916Z,1013.59
2016-10-19T02:46:20.583Z,1013.62
2016-10-19T02:47:01.257Z,1013.61
2016-10-19T02:47:41.928Z,1013.58
2016-10-19T02:48:22.588Z,1013.59
2016-10-19T02:49:03.240Z,1013.6
2016-10-19T02:49:43.959Z,1013.61
2016-10-19T02:50:25.451Z,1013.56
2016-10-19T02:51:06.135Z,1013.55
2016-10-19T02:51:46.805Z,1013.57
2016-10-19T02:52:27.477Z,1013.6
2016-10-19T02:53:08.145Z,1013.55
2016-10-19T02:53:48.871Z,1013.59
2016-10-19T02:54:29.548Z,1013.54
2016-10-19T02:55:10.246Z,1013.57
2016-10-19T02:55:50.917Z,1013.54
2016-10-19T02:56:31.550Z,1013.54
2016-10-19T02:57:12.211Z,1013.57
2016-10-19T02:57:52.898Z,1013.56
2016-10-19T02:58:33.616Z,1013.54
2016-10-19T02:59:14.332Z,1013.55
2016-10-19T02:59:55.033Z,1013.57
2016-10-19T03:00:35.731Z,1013.55
2016-10-19T03:01:16.439Z,1013.54
2016-10-19T03:01:57.128Z,1013.59
2016-10-19T03:02:37.814Z,1013.54
2016-10-19T03:03:18.481Z,1013.54
2016-10-19T03:03:59.137Z,1013.58
2016-10-19T03:04:39.797Z,1013.58
2016-10-19T03:05:20.499Z,1013.56
2016-10-19T03:06:01.197Z,1013.54
2016-10-19T03:06:41.882Z,1013.52
2016-10-19T03:07:22.567Z,1013.53
2016-10-19T03:08:03.226Z,1013.54
2016-10-19T03:08:43.954Z,1013.53
2016-10-19T03:09:24.695Z,1013.52
2016-10-19T03:10:05.407Z,1013.52
2016-10-19T03:10:46.081Z,1013.52
2016-10-19T03:11:26.742Z,1013.53
2016-10-19T03:12:07.423Z,1013.5
2016-10-19T03:12:48.081Z,1013.48
2016-10-19T03:13:28.797Z,1013.49
2016-10-19T03:14:09.492Z,1013.47
2016-10-19T03:14:50.182Z,1013.47
2016-10-19T03:15:30.858Z,1013.5
2016-10-19T03:16:11.529Z,1013.46
2016-10-19T03:16:52.237Z,1013.48
2016-10-19T03:17:32.938Z,1013.45
2016-10-19T03:18:13.609Z,1013.43
2016-10-19T03:18:54.291Z,1013.44
2016-10-19T03:19:35.027Z,1013.44
2016-10-19T03:20:15.720Z,1013.42
2016-10-19T03:20:56.443Z,1013.4
2016-10-19T03:21:37.124Z,1013.41
2016-10-19T03:22:17.815Z,1013.37
2016-10-19T03:22:58.470Z,1013.41
2016-10-19T03:23:39.174Z,1013.39
2016-10-19T03:24:19.903Z,1013.42
2016-10-19T03:25:00.561Z,1013.43
2016-10-19T03:25:41.245Z,1013.43
2016-10-19T03:26:21.923Z,1013.44
2016-10-19T03:27:02.602Z,1013.41
2016-10-19T03:27:43.279Z,1013.41
2016-10-19T03:28:23.977Z,1013.42
2016-10-19T03:29:04.635Z,1013.36
2016-10-19T03:29:45.289Z,1013.39
2016-10-19T03:30:25.927Z,1013.39
2016-10-19T03:31:06.594Z,1013.35
2016-10-19T03:31:47.244Z,1013.36
2016-10-19T03:32:27.952Z,1013.4
2016-10-19T03:33:08.620Z,1013.33
2016-10-19T03:33:49.284Z,1013.35
2016-10-19T03:34:29.968Z,1013.33
2016-10-19T03:35:10.627Z,1013.3
2016-10-19T03:35:51.314Z,1013.31
2016-10-19T03:36:32.026Z,1013.3
2016-10-19T03:37:12.770Z,1013.27
2016-10-19T03:37:53.434Z,1013.29
2016-10-19T03:38:34.166Z,1013.29
2016-10-19T03:39:14.834Z,1013.28
2016-10-19T03:39:55.532Z,1013.26
2016-10-19T03:40:36.195Z,1013.25
2016-10-19T03:41:16.854Z,1013.26
2016-10-19T03:41:57.562Z,1013.26
2016-10-19T03:42:38.250Z,1013.26
2016-10-19T03:43:18.920Z,1013.25
2016-10-19T03:43:59.618Z,1013.27
2016-10-19T03:44:40.307Z,1013.26
2016-10-19T03:45:21.017Z,1013.24
2016-10-19T03:46:01.725Z,1013.26
2016-10-19T03:46:42.431Z,1013.24
2016-10-19T03:47:23.133Z,1013.26
2016-10-19T03:48:03.794Z,1013.28
2016-10-19T03:48:44.451Z,1013.28
2016-10-19T03:49:25.148Z,1013.27
2016-10-19T03:50:05.872Z,1013.23
2016-10-19T03:50:46.541Z,1013.25
2016-10-19T03:51:27.187Z,1013.23
2016-10-19T03:52:07.855Z,1013.22
2016-10-19T03:52:48.540Z,1013.21
2016-10-19T03:53:29.251Z,1013.2
2016-10-19T03:54:09.923Z,1013.19
2016-10-19T03:54:50.615Z,1013.2
2016-10-19T03:55:31.291Z,1013.19
2016-10-19T03:56:11.984Z,1013.2
2016-10-19T03:56:52.678Z,1013.18
2016-10-19T03:57:33.386Z,1013.17
2016-10-19T03:58:14.051Z,1013.19
2016-10-19T03:58:54.680Z,1013.18
2016-10-19T03:59:35.346Z,1013.17
2016-10-19T04:00:16.010Z,1013.14
2016-10-19T04:00:56.724Z,1013.15
2016-10-19T04:01:37.452Z,1013.16
2016-10-19T04:02:18.139Z,1013.12
2016-10-19T04:02:58.861Z,1013.1
2016-10-19T04:03:39.551Z,1013.11
2016-10-19T04:04:20.170Z,1013.1
2016-10-19T04:05:00.873Z,1013.11
2016-10-19T04:05:41.554Z,1013.1
2016-10-19T04:06:22.242Z,1013.13
2016-10-19T04:07:02.925Z,1013.11
2016-10-19T04:07:43.632Z,1013.08
2016-10-19T04:08:24.298Z,1013.1
2016-10-19T04:09:04.997Z,1013.08
2016-10-19T04:09:45.676Z,1013.09
2016-10-19T04:10:26.331Z,1013.08
2016-10-19T04:11:06.997Z,1013.1
2016-10-19T04:11:47.665Z,1013.07
2016-10-19T04:12:28.319Z,1013.1
2016-10-19T04:13:09.045Z,1013.08
2016-10-19T04:13:49.677Z,1013.06
2016-10-19T04:14:30.355Z,1013.11
2016-10-19T04:15:11.094Z,1013.08
2016-10-19T04:15:51.791Z,1013.08
2016-10-19T04:16:32.501Z,1013.09
2016-10-19T04:17:13.178Z,1013.07
2016-10-19T04:17:53.886Z,1013.09
2016-10-19T04:18:34.566Z,1013.05
2016-10-19T04:19:15.223Z,1013.06
2016-10-19T04:19:55.907Z,1013.08
2016-10-19T04:20:36.553Z,1013.1
2016-10-19T04:21:17.243Z,1013.08
2016-10-19T04:21:57.921Z,1013.1
2016-10-19T04:22:38.637Z,1013.1
2016-10-19T04:23:19.270Z,1013.1
2016-10-19T04:23:59.967Z,1013.08
2016-10-19T04:24:40.661Z,1013.11
2016-10-19T04:25:21.329Z,1013.1
2016-10-19T04:26:02.030Z,1013.1
2016-10-19T04:26:42.739Z,1013.11
2016-10-19T04:27:23.413Z,1013.09
2016-10-19T04:28:04.115Z,1013.1
2016-10-19T04:28:44.820Z,1013.1
2016-10-19T04:29:25.525Z,1013.08
2016-10-19T04:30:06.221Z,1013.05
2016-10-19T04:30:46.917Z,1013.06
2016-10-19T04:31:27.645Z,1013.07
2016-10-19T04:32:08.290Z,1013.07
2016-10-19T04:32:48.981Z,1013.08
2016-10-19T04:33:29.648Z,1013.04
2016-10-19T04:34:10.352Z,1013.09
2016-10-19T04:34:51.028Z,1013.08
2016-10-19T04:35:31.707Z,1013.07
2016-10-19T04:36:12.394Z,1013.07
2016-10-19T04:36:53.091Z,1013.04
2016-10-19T04:37:33.781Z,1013.04
2016-10-19T04:38:14.437Z,1013.05
2016-10-19T04:38:55.087Z,1013.03
2016-10-19T04:39:35.788Z,1013.02
2016-10-19T04:40:16.468Z,1013.02
2016-10-19T04:40:57.145Z,1013.01
2016-10-19T04:41:37.833Z,1013.04
2016-10-19T04:42:18.533Z,1013.01
2016-10-19T04:42:59.205Z,1013.01
2016-10-19T04:43:39.898Z,1013
2016-10-19T04:44:20.600Z,1012.96
2016-10-19T04:45:01.281Z,1012.94
2016-10-19T04:45:41.945Z,1012.93
2016-10-19T04:46:22.671Z,1012.96
2016-10-19T04:47:03.389Z,1012.93
2016-10-19T04:47:44.069Z,1012.93
2016-10-19T04:48:24.699Z,1012.95
2016-10-19T04:49:05.409Z,1012.93
2016-10-19T04:49:46.104Z,1012.91
2016-10-19T04:50:26.841Z,1012.87
2016-10-19T04:51:07.546Z,1012.91
2016-10-19T04:51:48.189Z,1012.93
2016-10-19T04:52:28.835Z,1012.88
2016-10-19T04:53:09.479Z,1012.87
2016-10-19T04:53:50.176Z,1012.86
2016-10-19T04:54:30.848Z,1012.87
2016-10-19T04:55:11.513Z,1012.89
2016-10-19T04:55:52.203Z,1012.87
2016-10-19T04:56:32.935Z,1012.87
2016-10-19T04:57:13.594Z,1012.86
2016-10-19T04:57:54.293Z,1012.86
2016-10-19T04:58:34.979Z,1012.88
2016-10-19T04:59:15.638Z,1012.87
2016-10-19T04:59:56.318Z,1012.85
2016-10-19T05:00:37.041Z,1012.85
2016-10-19T05:01:17.696Z,1012.86
2016-10-19T05:01:58.401Z,1012.83
2016-10-19T05:02:39.104Z,1012.84
2016-10-19T05:03:19.813Z,1012.87
2016-10-19T05:04:00.512Z,1012.83
2016-10-19T05:04:41.208Z,1012.85
2016-10-19T05:05:21.907Z,1012.86
2016-10-19T05:06:02.604Z,1012.8
2016-10-19T05:06:43.283Z,1012.84
2016-10-19T05:07:23.990Z,1012.83
2016-10-19T05:08:04.637Z,1012.81
2016-10-19T05:08:45.310Z,1012.81
2016-10-19T05:09:26.014Z,1012.81
2016-10-19T05:10:06.678Z,1012.79
2016-10-19T05:10:47.352Z,1012.78
2016-10-19T05:11:28.016Z,1012.83
2016-10-19T05:12:08.681Z,1012.81
2016-10-19T05:12:49.399Z,1012.82
2016-10-19T05:13:30.111Z,1012.81
2016-10-19T05:14:10.777Z,1012.79
2016-10-19T05:14:51.434Z,1012.76
2016-10-19T05:15:32.162Z,1012.77
2016-10-19T05:16:12.851Z,1012.76
2016-10-19T05:16:53.518Z,1012.76
2016-10-19T05:17:34.227Z,1012.77
2016-10-19T05:18:14.924Z,1012.76
2016-10-19T05:18:55.628Z,1012.75
2016-10-19T05:19:36.331Z,1012.77
2016-10-19T05:20:16.969Z,1012.77
2016-10-19T05:20:57.653Z,1012.73
2016-10-19T05:21:38.330Z,1012.74
2016-10-19T05:22:18.998Z,1012.75
2016-10-19T05:22:59.639Z,1012.74
2016-10-19T05:23:40.344Z,1012.73
2016-10-19T05:24:21.047Z,1012.77
2016-10-19T05:25:01.695Z,1012.78
2016-10-19T05:25:42.405Z,1012.75
2016-10-19T05:26:23.095Z,1012.73
2016-10-19T05:27:03.764Z,1012.77
2016-10-19T05:27:44.435Z,1012.75
2016-10-19T05:28:25.123Z,1012.73
2016-10-19T05:29:05.795Z,1012.74
2016-10-19T05:29:46.521Z,1012.72
2016-10-19T05:30:27.192Z,1012.74
2016-10-19T05:31:07.858Z,1012.72
2016-10-19T05:31:48.542Z,1012.76
2016-10-19T05:32:29.235Z,1012.74
2016-10-19T05:33:09.915Z,1012.73
2016-10-19T05:33:50.595Z,1012.74
2016-10-19T05:34:31.308Z,1012.71
2016-10-19T05:35:11.994Z,1012.7
2016-10-19T05:35:52.644Z,1012.71
2016-10-19T05:36:33.310Z,1012.7
2016-10-19T05:37:13.955Z,1012.72
2016-10-19T05:37:54.636Z,1012.72
2016-10-19T05:38:35.296Z,1012.74
2016-10-19T05:39:15.956Z,1012.72
2016-10-19T05:39:56.707Z,1012.71
2016-10-19T05:40:37.384Z,1012.74
2016-10-19T05:41:18.104Z,1012.74
2016-10-19T05:41:58.830Z,1012.73
2016-10-19T05:42:39.493Z,1012.76
2016-10-19T05:43:20.220Z,1012.73
2016-10-19T05:44:00.927Z,1012.71
2016-10-19T05:44:41.559Z,1012.75
2016-10-19T05:45:22.251Z,1012.72
2016-10-19T05:46:02.920Z,1012.72
2016-10-19T05:46:43.594Z,1012.73
2016-10-19T05:47:24.271Z,1012.75
2016-10-19T05:48:04.966Z,1012.72
2016-10-19T05:48:45.601Z,1012.74
2016-10-19T05:49:26.287Z,1012.72
2016-10-19T05:50:06.978Z,1012.77
2016-10-19T05:50:47.665Z,1012.76
2016-10-19T05:51:28.358Z,1012.75
2016-10-19T05:52:09.007Z,1012.73
2016-10-19T05:52:49.690Z,1012.74
2016-10-19T05:53:30.429Z,1012.73
2016-10-19T05:54:11.129Z,1012.76
2016-10-19T05:54:51.778Z,1012.77
2016-10-19T05:55:32.490Z,1012.76
2016-10-19T05:56:13.190Z,1012.79
2016-10-19T05:56:53.842Z,1012.73
2016-10-19T05:57:34.569Z,1012.78
2016-10-19T05:58:15.232Z,1012.79
2016-10-19T05:58:55.934Z,1012.79
2016-10-19T05:59:36.624Z,1012.79
2016-10-19T06:00:17.322Z,1012.77
2016-10-19T06:00:58.004Z,1012.75
2016-10-19T06:01:38.793Z,1012.77
2016-10-19T06:02:19.492Z,1012.78
2016-10-19T06:03:00.153Z,1012.8
2016-10-19T06:03:40.898Z,1012.76
2016-10-19T06:04:21.630Z,1012.77
2016-10-19T06:05:02.329Z,1012.8
2016-10-19T06:05:43.072Z,1012.82
2016-10-19T06:06:23.770Z,1012.8
2016-10-19T06:07:04.447Z,1012.81
2016-10-19T06:07:45.147Z,1012.82
2016-10-19T06:08:25.853Z,1012.84
2016-10-19T06:09:06.528Z,1012.8
2016-10-19T06:09:47.213Z,1012.83
2016-10-19T06:10:27.833Z,1012.82
2016-10-19T06:11:08.538Z,1012.91
2016-10-19T06:11:49.253Z,1012.87
2016-10-19T06:12:29.957Z,1012.88
2016-10-19T06:13:10.632Z,1012.86
2016-10-19T06:13:51.347Z,1012.85
2016-10-19T06:14:32.066Z,1012.89
2016-10-19T06:15:12.747Z,1012.83
2016-10-19T06:15:53.451Z,1012.86
2016-10-19T06:16:34.213Z,1012.88
2016-10-19T06:17:14.896Z,1012.89
2016-10-19T06:17:55.583Z,1012.86
2016-10-19T06:18:36.373Z,1012.86
2016-10-19T06:19:17.053Z,1012.91
2016-10-19T06:19:57.799Z,1012.92
2016-10-19T06:21:56.084Z,1012.93
2016-10-19T06:22:36.748Z,1012.99
2016-10-19T06:23:17.422Z,1012.96
2016-10-19T06:23:58.092Z,1013
2016-10-19T06:24:38.783Z,1013.02
2016-10-19T06:25:19.461Z,1012.97
2016-10-19T06:26:00.192Z,1013
2016-10-19T06:26:40.896Z,1012.98
2016-10-19T06:27:21.612Z,1012.98
2016-10-19T06:28:02.297Z,1013.02
2016-10-19T06:28:43.003Z,1013.02
2016-10-19T06:29:23.658Z,1013.03
2016-10-19T06:30:04.324Z,1012.98
2016-10-19T06:30:44.996Z,1013.02
2016-10-19T06:31:25.656Z,1013.01
2016-10-19T06:32:06.364Z,1013.02
2016-10-19T06:32:47.067Z,1012.99
2016-10-19T06:33:27.774Z,1013.01
2016-10-19T06:34:08.436Z,1013.01
2016-10-19T06:34:49.131Z,1013.02
2016-10-19T06:35:29.822Z,1013.02
2016-10-19T06:36:10.503Z,1013
2016-10-19T06:36:51.245Z,1013.05
2016-10-19T06:37:31.859Z,1013.02
2016-10-19T06:38:12.625Z,1013.03
2016-10-19T06:38:53.299Z,1013.02
2016-10-19T06:39:34.012Z,1012.97
2016-10-19T06:40:14.755Z,1013.03
2016-10-19T06:40:55.472Z,1013.01
2016-10-19T06:41:36.127Z,1013.03
2016-10-19T06:42:16.823Z,1013.02
2016-10-19T06:42:57.483Z,1013.05
2016-10-19T06:43:38.181Z,1013.02
2016-10-19T06:44:18.872Z,1013.04
2016-10-19T06:44:59.622Z,1013.09
2016-10-19T06:45:40.315Z,1013.1
2016-10-19T06:46:21.012Z,1013.06
2016-10-19T06:47:01.715Z,1013.04
2016-10-19T06:47:42.380Z,1013.06
2016-10-19T06:48:23.094Z,1013.1
2016-10-19T06:49:03.797Z,1013.08
2016-10-19T06:49:44.501Z,1013.06
2016-10-19T06:50:25.242Z,1013.08
2016-10-19T06:51:05.973Z,1013.1
2016-10-19T06:51:46.653Z,1013.09
2016-10-19T06:52:27.364Z,1013.1
2016-10-19T06:53:08.060Z,1013.11
2016-10-19T06:53:48.812Z,1013.11
2016-10-19T06:54:29.463Z,1013.11
2016-10-19T06:55:10.187Z,1013.16
2016-10-19T06:55:50.895Z,1013.14
2016-10-19T06:56:31.583Z,1013.12
2016-10-19T06:57:12.312Z,1013.15
2016-10-19T06:57:53.020Z,1013.12
2016-10-19T06:58:33.704Z,1013.19
2016-10-19T06:59:14.420Z,1013.18
2016-10-19T06:59:55.092Z,1013.17
2016-10-19T07:00:35.784Z,1013.2
2016-10-19T07:01:16.453Z,1013.2
2016-10-19T07:01:57.143Z,1013.19
2016-10-19T07:02:37.846Z,1013.16
2016-10-19T07:03:18.554Z,1013.17
2016-10-19T07:03:59.271Z,1013.19
2016-10-19T07:04:39.968Z,1013.18
2016-10-19T07:05:20.680Z,1013.18
2016-10-19T07:06:01.353Z,1013.19
2016-10-19T07:06:42.022Z,1013.19
2016-10-19T07:07:22.679Z,1013.16
2016-10-19T07:08:03.334Z,1013.15
2016-10-19T07:08:43.980Z,1013.18
2016-10-19T07:09:24.697Z,1013.16
2016-10-19T07:10:05.375Z,1013.17
2016-10-19T07:10:46.071Z,1013.16
2016-10-19T07:11:26.751Z,1013.15
2016-10-19T07:12:07.453Z,1013.16
2016-10-19T07:12:48.182Z,1013.12
2016-10-19T07:13:28.887Z,1013.18
2016-10-19T07:14:09.591Z,1013.15
2016-10-19T07:14:50.296Z,1013.16
2016-10-19T07:15:30.942Z,1013.18
2016-10-19T07:16:11.627Z,1013.19
2016-10-19T07:16:52.332Z,1013.21
2016-10-19T07:17:33.044Z,1013.2
2016-10-19T07:18:13.779Z,1013.2
2016-10-19T07:18:54.528Z,1013.21
2016-10-19T07:19:35.217Z,1013.25
2016-10-19T07:20:15.884Z,1013.23
2016-10-19T07:20:56.613Z,1013.24
2016-10-19T07:21:37.290Z,1013.29
2016-10-19T07:22:17.993Z,1013.27
2016-10-19T07:22:58.716Z,1013.3
2016-10-19T07:23:39.357Z,1013.3
2016-10-19T07:24:20.049Z,1013.29
2016-10-19T07:25:00.739Z,1013.31
2016-10-19T07:25:41.472Z,1013.26
2016-10-19T07:26:22.219Z,1013.31
2016-10-19T07:27:02.912Z,1013.29
2016-10-19T07:27:43.638Z,1013.29
2016-10-19T07:28:24.355Z,1013.27
2016-10-19T07:29:05.037Z,1013.27
2016-10-19T07:29:45.740Z,1013.27
2016-10-19T07:30:27.447Z,1013.26
2016-10-19T07:31:08.167Z,1013.23
2016-10-19T07:31:48.887Z,1013.24
2016-10-19T07:32:29.619Z,1013.25
2016-10-19T07:33:10.309Z,1013.26
2016-10-19T07:33:51.008Z,1013.24
2016-10-19T07:34:31.656Z,1013.26
2016-10-19T07:35:12.314Z,1013.2
2016-10-19T07:35:52.986Z,1013.22
2016-10-19T07:36:33.633Z,1013.26
2016-10-19T07:37:14.317Z,1013.26
2016-10-19T07:37:54.994Z,1013.23
2016-10-19T07:38:35.673Z,1013.26
2016-10-19T07:39:16.385Z,1013.25
2016-10-19T07:39:57.069Z,1013.29
2016-10-19T07:40:38.582Z,1013.3
2016-10-19T07:41:19.306Z,1013.3
2016-10-19T07:42:00.052Z,1013.33
2016-10-19T07:42:40.675Z,1013.35
2016-10-19T07:43:21.683Z,1013.33
2016-10-19T07:44:02.382Z,1013.31
2016-10-19T07:44:43.013Z,1013.32
2016-10-19T07:45:23.687Z,1013.35
2016-10-19T07:46:04.357Z,1013.35
2016-10-19T07:46:45.055Z,1013.31
2016-10-19T07:47:25.762Z,1013.32
2016-10-19T07:48:06.437Z,1013.3
2016-10-19T07:48:47.156Z,1013.33
2016-10-19T07:49:27.867Z,1013.3
2016-10-19T07:50:08.541Z,1013.3
2016-10-19T07:50:49.291Z,1013.32
2016-10-19T07:51:29.995Z,1013.33
2016-10-19T07:52:10.741Z,1013.33
2016-10-19T07:52:51.405Z,1013.33
2016-10-19T07:53:32.166Z,1013.34
2016-10-19T07:54:12.829Z,1013.34
2016-10-19T07:54:53.591Z,1013.36
2016-10-19T07:55:34.398Z,1013.33
2016-10-19T07:56:15.130Z,1013.34
2016-10-19T07:56:55.928Z,1013.33
2016-10-19T07:57:36.630Z,1013.36
2016-10-19T07:58:17.416Z,1013.3
2016-10-19T07:58:58.041Z,1013.34
2016-10-19T07:59:38.756Z,1013.33
2016-10-19T08:00:19.434Z,1013.37
2016-10-19T08:01:00.137Z,1013.34
2016-10-19T08:01:40.808Z,1013.36
2016-10-19T08:02:21.478Z,1013.36
2016-10-19T08:03:02.165Z,1013.36
2016-10-19T08:03:43.662Z,1013.33
2016-10-19T08:04:24.991Z,1013.36
2016-10-19T08:05:05.680Z,1013.34
2016-10-19T08:05:46.322Z,1013.35
2016-10-19T08:06:27.093Z,1013.33
2016-10-19T08:07:07.885Z,1013.36
2016-10-19T08:07:49.532Z,1013.36
2016-10-19T08:08:30.315Z,1013.35
2016-10-19T08:09:11.039Z,1013.31
2016-10-19T08:09:51.730Z,1013.34
2016-10-19T08:10:32.779Z,1013.31
2016-10-19T08:11:13.510Z,1013.31
2016-10-19T08:11:54.262Z,1013.31
2016-10-19T08:12:34.962Z,1013.28
2016-10-19T08:13:15.621Z,1013.31
2016-10-19T08:13:57.187Z,1013.3
2016-10-19T08:14:38.788Z,1013.28
2016-10-19T08:15:19.794Z,1013.29